Time;durP1;ratioP1;P1;durP2;ratioP2;P2;SDS_P1;SDS_P2;PMS_P1;PMS_P2;Temp;Humidity;BMP_temperature;BMP_pressure;BME280_temperature;BME280_humidity;BME280_pressure;Samples;Min_cycle;Max_cycle;Signal;HPM_P1;HPM_P2
2023/11/25 00:00:22;;;;;;;0.80;0.80;;;;;;;;;;5106807;28;20102;-73
2023/11/25 00:02:51;;;;;;;3.17;1.52;;;3.30;91.90;;;;;;5105396;28;20043;-70
2023/11/25 00:05:17;;;;;;;2.13;1.25;;;;;;;;;;5106759;28;20034;-70
2023/11/25 00:07:44;;;;;;;1.70;1.05;;;;;;;;;;5106953;28;20024;-74
2023/11/25 00:10:10;;;;;;;1.42;1.23;;;;;;;;;;5106623;28;20059;-74
2023/11/25 00:12:35;;;;;;;2.10;1.27;;;3.30;99.90;;;;;;5106516;28;20204;-74
2023/11/25 00:15:02;;;;;;;1.77;1.30;;;3.20;92.40;;;;;;5106402;28;20238;-74
2023/11/25 00:17:29;;;;;;;3.47;1.60;;;3.20;96.30;;;;;;5106545;28;20031;-74
2023/11/25 00:19:58;;;;;;;2.28;1.33;;;3.10;99.90;;;;;;5106390;28;20350;-74
2023/11/25 00:22:25;;;;;;;1.08;1.00;;;;;;;;;;5104722;28;20031;-74
2023/11/25 00:24:52;;;;;;;2.00;1.60;;;3.30;92.70;;;;;;5103336;28;20028;-74
2023/11/25 00:27:18;;;;;;;1.25;1.15;;;3.70;99.90;;;;;;5103148;28;20276;-74
2023/11/25 00:29:43;;;;;;;3.78;1.48;;;3.20;97.60;;;;;;5103726;28;20334;-74
2023/11/25 00:32:10;;;;;;;1.40;1.17;;;3.10;95.70;;;;;;5103297;28;20026;-74
2023/11/25 00:34:36;;;;;;;2.25;1.40;;;;;;;;;;5102953;28;20063;-74
2023/11/25 00:37:02;;;;;;;2.35;1.85;;;;;;;;;;5103144;28;20031;-73
2023/11/25 00:39:29;;;;;;;2.00;1.30;;;3.20;95.50;;;;;;5103095;28;20024;-73
2023/11/25 00:41:55;;;;;;;2.47;1.60;;;;;;;;;;5102877;28;20044;-72
2023/11/25 00:44:21;;;;;;;2.83;1.30;;;3.10;99.90;;;;;;5102738;28;20212;-72
2023/11/25 00:46:47;;;;;;;4.07;1.35;;;3.10;94.70;;;;;;5102724;28;20034;-72
2023/11/25 00:49:15;;;;;;;1.63;1.20;;;;;;;;;;5103020;28;20300;-72
2023/11/25 00:51:41;;;;;;;2.80;1.25;;;;;;;;;;5101041;28;20024;-72
2023/11/25 00:54:08;;;;;;;1.67;1.50;;;3.70;98.60;;;;;;5102518;28;20269;-72
2023/11/25 00:56:33;;;;;;;3.15;1.35;;;3.60;98.70;;;;;;5101456;28;20085;-72
2023/11/25 00:58:59;;;;;;;2.42;1.48;;;3.50;99.90;;;;;;5101468;28;20411;-72
2023/11/25 01:01:25;;;;;;;1.92;1.40;;;;;;;;;;5103019;28;20213;-73
2023/11/25 01:03:52;;;;;;;2.08;1.40;;;3.90;97.20;;;;;;5102709;28;20031;-71
2023/11/25 01:06:17;;;;;;;3.03;1.48;;;3.80;99.90;;;;;;5102817;28;20054;-71
2023/11/25 01:08:43;;;;;;;6.93;1.50;;;3.50;95.60;;;;;;5102540;28;20028;-71
2023/11/25 01:11:09;;;;;;;3.05;1.30;;;3.60;99.90;;;;;;5102175;28;20016;-70
2023/11/25 01:13:35;;;;;;;1.48;1.30;;;;;;;;;;5102263;28;20024;-70
2023/11/25 01:16:01;;;;;;;4.43;1.60;;;;;;;;;;5102293;28;20040;-71
2023/11/25 01:18:27;;;;;;;3.40;2.05;;;;;;;;;;5101772;28;20031;-70
2023/11/25 01:20:56;;;;;;;2.75;1.63;;;;;;;;;;5102322;28;20043;-71
2023/11/25 01:23:23;;;;;;;3.47;1.80;;;3.60;99.90;;;;;;5102282;28;20385;-70
2023/11/25 01:25:51;;;;;;;1.80;1.65;;;3.30;95.30;;;;;;5101702;28;20052;-70
2023/11/25 01:28:17;;;;;;;3.00;1.50;;;;;;;;;;5102106;28;20073;-71
2023/11/25 01:30:44;;;;;;;1.45;1.20;;;;;;;;;;5101991;28;20197;-71
2023/11/25 01:33:10;;;;;;;4.40;1.77;;;3.70;99.90;;;;;;5101773;28;20186;-71
2023/11/25 01:35:38;;;;;;;3.20;1.70;;;3.50;93.20;;;;;;5100437;28;20043;-71
2023/11/25 01:38:04;;;;;;;4.40;1.50;;;;;;;;;;5102057;28;20224;-72
2023/11/25 01:40:30;;;;;;;2.63;1.42;;;3.50;99.90;;;;;;5101781;28;20030;-71
2023/11/25 01:42:59;;;;;;;3.35;1.52;;;3.50;93.20;;;;;;5101852;28;20035;-71
2023/11/25 01:45:26;;;;;;;1.63;1.30;;;3.50;99.90;;;;;;5101810;28;20028;-71
2023/11/25 01:47:52;;;;;;;4.50;1.45;;;;;;;;;;5101869;28;20090;-70
2023/11/25 01:50:18;;;;;;;2.60;1.20;;;;;;;;;;5101684;28;20081;-71
2023/11/25 01:52:44;;;;;;;3.10;1.02;;;3.50;98.80;;;;;;5101765;28;20031;-71
2023/11/25 01:55:11;;;;;;;1.55;1.20;;;3.50;93.30;;;;;;5101291;28;20283;-71
2023/11/25 01:57:38;;;;;;;5.22;1.65;;;3.80;94.30;;;;;;5101410;28;20035;-72
2023/11/25 02:00:08;;;;;;;4.55;2.03;;;3.40;99.10;;;;;;5101429;28;20040;-71
2023/11/25 02:02:37;;;;;;;2.55;1.85;;;3.50;99.90;;;;;;5101614;28;20044;-71
2023/11/25 02:05:03;;;;;;;4.15;1.60;;;3.30;93.10;;;;;;5101295;28;20556;-71
2023/11/25 02:07:29;;;;;;;3.50;1.58;;;3.30;97.70;;;;;;5101553;28;20024;-70
2023/11/25 02:09:55;;;;;;;2.30;1.63;;;3.30;99.90;;;;;;5101359;28;20284;-70
2023/11/25 02:12:21;;;;;;;4.43;1.40;;;3.20;99.90;;;;;;5101168;28;20024;-71
2023/11/25 02:14:47;;;;;;;2.15;1.63;;;;;;;;;;5101341;28;20040;-71
2023/11/25 02:17:14;;;;;;;3.33;2.25;;;2.60;94.20;;;;;;5101195;28;20087;-71
2023/11/25 02:19:43;;;;;;;6.07;1.88;;;3.20;99.90;;;;;;5101232;28;20028;-72
2023/11/25 02:22:11;;;;;;;2.63;1.60;;;3.50;98.90;;;;;;5101037;28;20314;-71
2023/11/25 02:24:38;;;;;;;2.90;2.20;;;;;;;;;;5101025;28;20275;-72
2023/11/25 02:27:05;;;;;;;2.20;1.52;;;3.10;96.70;;;;;;5099600;28;20543;-72
2023/11/25 02:29:32;;;;;;;2.78;1.60;;;3.10;99.90;;;;;;5101007;28;20311;-71
2023/11/25 02:32:03;;;;;;;2.33;1.45;;;2.80;93.90;;;;;;5100878;28;20016;-71
2023/11/25 02:34:29;;;;;;;1.85;1.60;;;;;;;;;;5100762;28;20032;-71
2023/11/25 02:36:57;;;;;;;3.30;2.00;;;2.60;99.90;;;;;;5100908;28;20008;-71
2023/11/25 02:39:23;;;;;;;5.65;2.10;;;;;;;;;;5087352;28;20032;-72
2023/11/25 02:41:52;;;;;;;3.20;2.33;;;2.50;94.70;;;;;;5080831;28;20056;-72
2023/11/25 02:44:19;;;;;;;2.38;1.52;;;2.40;94.80;;;;;;5080225;28;20024;-73
2023/11/25 02:46:46;;;;;;;3.28;1.95;;;;;;;;;;5071419;28;20040;-73
2023/11/25 02:49:12;;;;;;;3.63;1.95;;;2.40;99.90;;;;;;5078996;28;20354;-72
2023/11/25 02:51:38;;;;;;;4.00;1.83;;;;;;;;;;5095893;28;20247;-72
2023/11/25 02:54:07;;;;;;;3.13;1.98;;;2.30;99.90;;;;;;5100550;28;20046;-72
2023/11/25 02:56:33;;;;;;;3.45;1.73;;;;;;;;;;5100719;28;20032;-72
2023/11/25 02:59:01;;;;;;;3.08;2.33;;;;;;;;;;5100396;28;20056;-72
2023/11/25 03:01:29;;;;;;;5.13;2.00;;;;;;;;;;5100428;28;20327;-72
2023/11/25 03:03:59;;;;;;;6.80;2.60;;;2.30;99.90;;;;;;5100477;28;20020;-72
2023/11/25 03:06:26;;;;;;;4.22;1.70;;;;;;;;;;5100599;28;20028;-72
2023/11/25 03:08:53;;;;;;;2.13;1.38;;;2.30;99.90;;;;;;5100701;28;20043;-71
2023/11/25 03:11:22;;;;;;;3.38;1.85;;;2.10;95.70;;;;;;5100676;28;20038;-72
2023/11/25 03:13:48;;;;;;;2.97;1.10;;;2.10;98.70;;;;;;5100565;28;20023;-71
2023/11/25 03:16:14;;;;;;;4.68;1.00;;;;;;;;;;5100400;28;20067;-72
2023/11/25 03:18:40;;;;;;;1.95;1.05;;;2.20;99.90;;;;;;5100659;28;20042;-72
2023/11/25 03:21:06;;;;;;;2.95;0.63;;;2.20;99.90;;;;;;5095380;28;20323;-72
2023/11/25 03:23:32;;;;;;;2.83;0.80;;;;;;;;;;5080308;28;20092;-71
2023/11/25 03:25:58;;;;;;;3.38;0.90;;;;;;;;;;5079737;28;20115;-71
2023/11/25 03:28:25;;;;;;;0.50;0.50;;;;;;;;;;5079769;28;20028;-71
2023/11/25 03:30:51;;;;;;;3.13;0.73;;;;;;;;;;5080022;28;20016;-71
2023/11/25 03:33:17;;;;;;;4.85;0.70;;;2.20;99.90;;;;;;5078726;28;20178;-71
2023/11/25 03:35:43;;;;;;;1.75;0.68;;;;;;;;;;5079769;28;20134;-72
2023/11/25 03:38:08;;;;;;;4.20;0.90;;;2.40;96.30;;;;;;5079955;28;20091;-73
2023/11/25 03:40:34;;;;;;;1.48;1.00;;;2.40;97.70;;;;;;5080004;28;20312;-71
2023/11/25 03:43:00;;;;;;;2.75;0.98;;;2.30;98.20;;;;;;5080110;28;20025;-71
2023/11/25 03:45:26;;;;;;;4.18;1.30;;;2.40;99.90;;;;;;5080272;28;20091;-71
2023/11/25 03:47:53;;;;;;;3.72;0.80;;;2.50;97.50;;;;;;5080345;28;20023;-71
2023/11/25 03:50:19;;;;;;;1.83;1.10;;;;;;;;;;5079861;28;20036;-71
2023/11/25 03:52:45;;;;;;;1.65;1.13;;;;;;;;;;5080305;28;20025;-71
2023/11/25 03:55:11;;;;;;;1.13;0.80;;;;;;;;;;5079919;28;20043;-71
2023/11/25 03:57:39;;;;;;;1.13;0.60;;;2.50;97.00;;;;;;5079916;28;20009;-72
2023/11/25 04:00:14;;;;;;;1.88;1.08;;;2.30;93.20;;;;;;5083346;28;20312;-72
2023/11/25 04:02:44;;;;;;;1.10;0.50;;;2.40;93.20;;;;;;5083785;28;20026;-71
2023/11/25 04:05:11;;;;;;;1.40;0.85;;;2.30;93.10;;;;;;5083496;28;20025;-71
2023/11/25 04:07:37;;;;;;;0.93;0.68;;;;;;;;;;5083740;28;20012;-71
2023/11/25 04:10:12;;;;;;;0.55;0.47;;;2.40;93.00;;;;;;5082189;28;20028;-70
2023/11/25 04:12:46;;;;;;;0.93;0.70;;;2.40;99.90;;;;;;5083646;28;20032;-70
2023/11/25 04:15:13;;;;;;;1.40;0.63;;;2.90;99.90;;;;;;5083141;28;20020;-71
2023/11/25 04:17:39;;;;;;;1.25;0.60;;;;;;;;;;5083258;28;20028;-71
2023/11/25 04:20:24;;;;;;;1.95;0.80;;;2.40;92.60;;;;;;5083245;28;20067;-72
2023/11/25 04:22:50;;;;;;;3.67;0.60;;;2.50;99.90;;;;;;5083521;28;20092;-71
2023/11/25 04:25:16;;;;;;;1.73;0.95;;;;;;;;;;5082752;28;20259;-71
2023/11/25 04:27:44;;;;;;;2.30;0.63;;;2.50;99.90;;;;;;5081787;28;20212;-72
2023/11/25 04:30:11;;;;;;;3.60;0.60;;;2.40;92.50;;;;;;5082887;28;20085;-73
2023/11/25 04:32:40;;;;;;;1.13;0.70;;;2.10;99.90;;;;;;5083030;28;20032;-72
2023/11/25 04:35:07;;;;;;;4.32;0.90;;;2.40;92.60;;;;;;5081519;28;20047;-72
2023/11/25 04:37:37;;;;;;;0.90;0.77;;;2.30;99.90;;;;;;5068310;28;20017;-71
2023/11/25 04:40:06;;;;;;;1.20;0.60;;;2.50;99.90;;;;;;5062548;28;20536;-71
2023/11/25 04:42:33;;;;;;;1.77;1.10;;;2.40;97.40;;;;;;5062778;28;20066;-71
2023/11/25 04:44:59;;;;;;;3.20;1.02;;;;;;;;;;5062524;28;20024;-70
2023/11/25 04:47:26;;;;;;;1.55;0.75;;;2.30;99.90;;;;;;5062543;28;20075;-70
2023/11/25 04:49:52;;;;;;;2.63;0.90;;;2.40;96.30;;;;;;5063269;28;20029;-71
2023/11/25 04:52:18;;;;;;;2.50;0.90;;;;;;;;;;5102716;28;20016;-71
2023/11/25 04:54:46;;;;;;;2.58;1.30;;;2.50;99.90;;;;;;5102544;28;20040;-71
2023/11/25 04:57:12;;;;;;;2.13;0.93;;;2.40;99.90;;;;;;5102617;28;20028;-71
2023/11/25 04:59:39;;;;;;;3.00;0.82;;;2.40;92.60;;;;;;5102567;28;20058;-70
2023/11/25 05:02:05;;;;;;;4.43;1.10;;;;;;;;;;5102567;28;20020;-73
2023/11/25 05:04:31;;;;;;;1.45;0.80;;;;;;;;;;5102455;28;20024;-72
2023/11/25 05:06:57;;;;;;;1.48;0.65;;;2.50;96.40;;;;;;5102514;28;20016;-72
2023/11/25 05:09:25;;;;;;;1.60;0.85;;;2.50;99.90;;;;;;5101918;28;20058;-72
2023/11/25 05:11:52;;;;;;;1.73;1.63;;;2.40;92.20;;;;;;5102306;28;20396;-72
2023/11/25 05:14:19;;;;;;;1.20;0.70;;;;;;;;;;5102231;28;20113;-71
2023/11/25 05:16:44;;;;;;;1.00;0.70;;;2.40;99.90;;;;;;5102505;28;20020;-71
2023/11/25 05:19:11;;;;;;;1.42;1.00;;;;;;;;;;5100955;28;20246;-71
2023/11/25 05:21:37;;;;;;;1.30;0.80;;;;;;;;;;5102318;28;20036;-71
2023/11/25 05:24:04;;;;;;;1.42;0.80;;;2.20;99.90;;;;;;5102336;28;20016;-71
2023/11/25 05:26:29;;;;;;;6.82;1.20;;;2.00;99.90;;;;;;5101883;28;20363;-71
2023/11/25 05:28:59;;;;;;;1.15;0.68;;;;;;;;;;5102245;28;20113;-71
2023/11/25 05:31:25;;;;;;;3.72;0.75;;;2.30;99.90;;;;;;5102077;28;20046;-71
2023/11/25 05:33:51;;;;;;;2.15;0.80;;;2.20;99.90;;;;;;5101866;28;20048;-72
2023/11/25 05:36:17;;;;;;;4.38;1.13;;;;;;;;;;5101891;28;20036;-71
2023/11/25 05:38:44;;;;;;;4.40;0.88;;;;;;;;;;5102077;28;20028;-71
2023/11/25 05:41:13;;;;;;;1.83;0.63;;;2.20;92.30;;;;;;5102004;28;20251;-71
2023/11/25 05:43:39;;;;;;;1.40;1.08;;;2.30;94.80;;;;;;5101713;28;20028;-71
2023/11/25 05:46:05;;;;;;;3.92;1.15;;;2.10;95.10;;;;;;5101284;28;20020;-72
2023/11/25 05:48:31;;;;;;;1.08;0.60;;;2.00;99.90;;;;;;5089805;28;20035;-71
2023/11/25 05:50:57;;;;;;;4.75;0.93;;;2.20;97.60;;;;;;5079950;28;20020;-71
2023/11/25 05:53:23;;;;;;;1.52;0.82;;;;;;;;;;5080750;28;20236;-71
2023/11/25 05:55:49;;;;;;;3.15;0.70;;;;;;;;;;5081014;28;20035;-73
2023/11/25 05:58:15;;;;;;;4.15;1.00;;;1.80;99.90;;;;;;5081095;28;20024;-72
2023/11/25 06:00:41;;;;;;;1.33;0.80;;;1.90;97.50;;;;;;5080993;28;20320;-76
2023/11/25 06:03:08;;;;;;;1.52;1.20;;;;;;;;;;5080212;28;20035;-77
2023/11/25 06:05:34;;;;;;;7.63;1.08;;;;;;;;;;5081628;28;20261;-74
2023/11/25 06:07:59;;;;;;;3.33;1.17;;;1.80;99.90;;;;;;5081433;28;20020;-77
2023/11/25 06:10:25;;;;;;;3.13;1.60;;;1.80;99.90;;;;;;5081455;28;20031;-74
2023/11/25 06:12:51;;;;;;;1.95;1.40;;;;;;;;;;5081433;28;20024;-73
2023/11/25 06:15:18;;;;;;;2.13;1.20;;;1.60;99.90;;;;;;5081569;28;20246;-72
2023/11/25 06:17:45;;;;;;;2.65;1.70;;;1.70;99.90;;;;;;5081226;28;20088;-73
2023/11/25 06:20:11;;;;;;;6.35;2.00;;;1.70;94.30;;;;;;5080432;28;20025;-71
2023/11/25 06:22:37;;;;;;;3.05;1.73;;;1.60;99.90;;;;;;5080527;28;20016;-74
2023/11/25 06:25:05;;;;;;;2.67;1.77;;;;;;;;;;5080897;28;20386;-71
2023/11/25 06:27:30;;;;;;;3.70;1.55;;;1.60;99.90;;;;;;5080746;28;20102;-71
2023/11/25 06:29:58;;;;;;;2.88;1.95;;;1.50;99.90;;;;;;5080346;28;20321;-71
2023/11/25 06:32:27;;;;;;;2.17;1.58;;;1.50;94.50;;;;;;5062173;28;20037;-75
2023/11/25 06:34:56;;;;;;;2.25;1.60;;;1.60;94.60;;;;;;5070288;28;20040;-77
2023/11/25 06:37:23;;;;;;;3.60;2.15;;;1.50;99.90;;;;;;5081118;28;20020;-75
2023/11/25 06:39:49;;;;;;;4.32;1.95;;;;;;;;;;5080888;28;20213;-78
2023/11/25 06:42:15;;;;;;;4.10;1.95;;;;;;;;;;5081243;28;20035;-75
2023/11/25 06:44:43;;;;;;;3.05;1.65;;;1.60;99.90;;;;;;5081202;28;20020;-75
2023/11/25 06:47:11;;;;;;;2.72;1.40;;;;;;;;;;5081097;28;20251;-76
2023/11/25 06:49:36;;;;;;;2.70;1.75;;;1.60;99.90;;;;;;5080788;28;20035;-74
2023/11/25 06:52:03;;;;;;;2.28;1.67;;;1.60;99.90;;;;;;5080650;28;20200;-76
2023/11/25 06:54:31;;;;;;;2.25;1.60;;;;;;;;;;5080565;28;20107;-76
2023/11/25 06:56:56;;;;;;;2.03;1.50;;;1.70;99.90;;;;;;5081062;28;20020;-75
2023/11/25 06:59:22;;;;;;;2.75;1.25;;;1.70;99.90;;;;;;5082950;28;20016;-86
2023/11/25 07:01:48;;;;;;;2.95;1.52;;;1.60;98.50;;;;;;5083680;28;20027;-84
2023/11/25 07:04:14;;;;;;;3.92;1.77;;;2.20;99.90;;;;;;5082504;28;20064;-75
2023/11/25 07:06:40;;;;;;;2.72;1.80;;;;;;;;;;5081518;28;20032;-75
2023/11/25 07:09:06;;;;;;;3.67;1.55;;;;;;;;;;5081204;28;20023;-75
2023/11/25 07:11:34;;;;;;;2.42;1.45;;;;;;;;;;5081683;28;20020;-76
2023/11/25 07:14:00;;;;;;;2.65;1.58;;;;;;;;;;5081375;28;20112;-75
2023/11/25 07:16:26;;;;;;;2.38;1.60;;;;;;;;;;5080565;28;20036;-73
2023/11/25 07:18:52;;;;;;;3.22;2.00;;;2.50;99.90;;;;;;5080502;28;20027;-75
2023/11/25 07:21:18;;;;;;;5.68;2.00;;;2.60;99.90;;;;;;5081424;28;20036;-74
2023/11/25 07:23:44;;;;;;;2.42;1.60;;;2.60;99.00;;;;;;5082745;28;20051;-75
2023/11/25 07:26:11;;;;;;;4.13;1.83;;;;;;;;;;5081821;28;20147;-74
2023/11/25 07:28:38;;;;;;;4.78;1.35;;;;;;;;;;5081124;28;20016;-74
2023/11/25 07:31:04;;;;;;;1.73;1.40;;;2.90;95.30;;;;;;5080933;28;20025;-74
2023/11/25 07:33:30;;;;;;;2.83;1.90;;;;;;;;;;5084424;28;20020;-76
2023/11/25 07:35:57;;;;;;;5.60;1.80;;;2.90;99.90;;;;;;5085483;28;20021;-76
2023/11/25 07:38:23;;;;;;;3.10;1.80;;;3.30;99.90;;;;;;5085591;28;20190;-74
2023/11/25 07:40:48;;;;;;;3.47;1.80;;;3.20;99.20;;;;;;5084585;28;20335;-74
2023/11/25 07:43:15;;;;;;;2.10;1.60;;;3.20;99.80;;;;;;5085130;28;20016;-74
2023/11/25 07:45:41;;;;;;;3.72;2.00;;;;;;;;;;5085394;28;20032;-74
2023/11/25 07:48:08;;;;;;;6.13;1.95;;;;;;;;;;5083916;28;20078;-74
2023/11/25 07:50:35;;;;;;;5.20;2.10;;;3.30;99.90;;;;;;5084805;28;20031;-73
2023/11/25 07:53:01;;;;;;;2.78;1.98;;;;;;;;;;5084584;28;20032;-74
2023/11/25 07:55:27;;;;;;;3.17;1.77;;;3.50;94.90;;;;;;5084356;28;20028;-74
2023/11/25 07:57:53;;;;;;;2.38;1.85;;;;;;;;;;5084296;28;20335;-74
2023/11/25 08:00:19;;;;;;;2.78;1.67;;;3.60;97.10;;;;;;5084547;28;20070;-75
2023/11/25 08:02:47;;;;;;;4.90;1.67;;;3.50;99.90;;;;;;5084449;28;20308;-74
2023/11/25 08:05:21;;;;;;;2.60;1.88;;;3.60;99.90;;;;;;5084099;28;20224;-74
2023/11/25 08:07:49;;;;;;;2.53;1.75;;;3.60;93.00;;;;;;5082992;28;20576;-73
2023/11/25 08:10:15;;;;;;;5.10;1.65;;;3.70;99.90;;;;;;5084538;28;20022;-74
2023/11/25 08:12:42;;;;;;;1.23;1.13;;;3.60;93.80;;;;;;5084135;28;20024;-74
2023/11/25 08:15:09;;;;;;;1.50;1.38;;;;;;;;;;5085060;28;20033;-76
2023/11/25 08:17:36;;;;;;;3.00;1.48;;;4.20;99.90;;;;;;5085441;28;20308;-74
2023/11/25 08:20:02;;;;;;;3.28;1.67;;;;;;;;;;5085364;28;20029;-74
2023/11/25 08:22:28;;;;;;;4.20;1.77;;;3.60;96.90;;;;;;5071068;28;20024;-75
2023/11/25 08:24:56;;;;;;;2.45;1.40;;;;;;;;;;5065725;28;20025;-74
2023/11/25 08:27:22;;;;;;;2.47;1.60;;;3.70;92.80;;;;;;5064952;28;20068;-77
2023/11/25 08:29:48;;;;;;;4.88;1.80;;;3.90;96.00;;;;;;5065810;28;20364;-75
2023/11/25 08:32:14;;;;;;;4.65;1.73;;;;;;;;;;5066074;28;20055;-74
2023/11/25 08:34:40;;;;;;;1.73;1.58;;;;;;;;;;5065617;28;20048;-75
2023/11/25 08:37:07;;;;;;;3.63;1.90;;;4.10;99.90;;;;;;5064565;28;20028;-74
2023/11/25 08:39:35;;;;;;;3.30;1.70;;;;;;;;;;5065644;28;20032;-75
2023/11/25 08:42:02;;;;;;;4.25;1.92;;;;;;;;;;5064350;28;20159;-74
2023/11/25 08:44:28;;;;;;;3.97;1.95;;;4.40;99.60;;;;;;5064362;28;20016;-74
2023/11/25 08:46:56;;;;;;;3.97;2.08;;;4.50;97.30;;;;;;5065424;28;20025;-74
2023/11/25 08:49:23;;;;;;;9.10;2.30;;;;;;;;;;5065099;28;20078;-75
2023/11/25 08:51:51;;;;;;;2.10;1.70;;;4.40;98.60;;;;;;5064658;28;20029;-74
2023/11/25 08:54:20;;;;;;;2.33;1.83;;;4.60;98.00;;;;;;5065319;28;20025;-78
2023/11/25 08:56:47;;;;;;;;;;;4.80;90.30;;;;;;5067617;28;20020;-74
2023/11/25 08:59:20;;;;;;;4.38;2.38;;;4.80;96.30;;;;;;5066653;28;19915;-74
2023/11/25 09:01:47;;;;;;;5.68;2.30;;;5.40;97.40;;;;;;5066377;28;20019;-77
2023/11/25 09:04:19;;;;;;;5.10;2.38;;;5.50;96.60;;;;;;5065566;28;20032;-74
2023/11/25 09:06:46;;;;;;;4.35;2.47;;;5.50;95.90;;;;;;5064713;28;20021;-73
2023/11/25 09:09:16;;;;;;;3.30;2.10;;;6.00;85.80;;;;;;5062911;28;20264;-75
2023/11/25 09:11:43;;;;;;;4.57;3.20;;;6.30;84.20;;;;;;5063143;28;20088;-86
2023/11/25 09:14:09;;;;;;;2.53;1.65;;;6.60;93.80;;;;;;5059707;28;20045;-75
2023/11/25 09:16:34;;;;;;;2.25;1.75;;;6.40;93.20;;;;;;5062905;28;20028;-74
2023/11/25 09:19:04;;;;;;;4.05;1.80;;;6.30;93.70;;;;;;5062656;28;20088;-74
2023/11/25 09:21:29;;;;;;;3.00;2.28;;;6.60;93.50;;;;;;5062915;28;20085;-74
2023/11/25 09:23:56;;;;;;;3.08;2.10;;;6.40;92.90;;;;;;5062586;28;20020;-74
2023/11/25 09:26:24;;;;;;;2.25;1.50;;;6.50;92.90;;;;;;5062366;28;20041;-76
2023/11/25 09:28:50;;;;;;;3.22;1.63;;;5.70;93.20;;;;;;5062638;28;20021;-72
2023/11/25 09:31:17;;;;;;;4.03;1.60;;;5.60;93.50;;;;;;5061241;28;20017;-71
2023/11/25 09:33:43;;;;;;;2.83;1.50;;;;;;;;;;5062222;28;20337;-71
2023/11/25 09:36:12;;;;;;;4.03;1.90;;;5.30;93.90;;;;;;5060869;28;20040;-71
2023/11/25 09:38:38;;;;;;;2.13;1.50;;;;;;;;;;5076221;28;20032;-71
2023/11/25 09:41:05;;;;;;;2.00;1.30;;;5.40;89.20;;;;;;5082233;28;20328;-71
2023/11/25 09:43:31;;;;;;;3.50;1.42;;;5.20;93.90;;;;;;5081891;28;20213;-71
2023/11/25 09:45:57;;;;;;;2.30;1.80;;;5.30;94.10;;;;;;5082059;28;20031;-71
2023/11/25 09:48:23;;;;;;;1.38;1.00;;;4.90;92.20;;;;;;5082114;28;20020;-71
2023/11/25 09:50:53;;;;;;;1.55;1.27;;;4.80;82.40;;;;;;5081834;28;20318;-71
2023/11/25 09:53:25;;;;;;;1.75;1.17;;;4.80;86.00;;;;;;5081732;28;20320;-71
2023/11/25 09:56:04;;;;;;;2.30;1.35;;;4.80;91.20;;;;;;5084195;28;20094;-71
2023/11/25 09:58:33;;;;;;;2.15;1.17;;;4.80;94.80;;;;;;5060398;28;20028;-70
2023/11/25 10:00:59;;;;;;;1.30;1.17;;;;;;;;;;5067273;28;20028;-73
2023/11/25 10:03:32;;;;;;;1.52;1.40;;;4.60;89.40;;;;;;5081212;28;20020;-71
2023/11/25 10:05:57;;;;;;;2.15;1.38;;;5.00;86.50;;;;;;5081283;28;20018;-73
2023/11/25 10:08:24;;;;;;;3.42;1.30;;;;;;;;;;5081193;28;20075;-74
2023/11/25 10:11:00;;;;;;;2.78;1.75;;;4.80;88.70;;;;;;5081348;28;20039;-72
2023/11/25 10:13:31;;;;;;;2.20;1.40;;;4.80;91.20;;;;;;5081371;28;20047;-73
2023/11/25 10:15:59;;;;;;;2.45;0.95;;;;;;;;;;5079741;28;20329;-72
2023/11/25 10:18:24;;;;;;;1.33;1.15;;;4.90;91.90;;;;;;5067734;28;20040;-72
2023/11/25 10:20:57;;;;;;;1.55;0.60;;;4.90;89.30;;;;;;5060952;28;20025;-71
2023/11/25 10:23:23;;;;;;;1.45;0.70;;;4.90;96.20;;;;;;5071780;28;20021;-74
2023/11/25 10:25:53;;;;;;;1.95;1.13;;;4.70;86.30;;;;;;5071654;28;20055;-73
2023/11/25 10:28:25;;;;;;;;;;;4.70;86.90;;;;;;5081281;28;20074;-73
2023/11/25 10:30:59;;;;;;;1.45;1.00;;;4.60;87.30;;;;;;5080814;28;19907;-73
2023/11/25 10:33:27;;;;;;;2.03;0.88;;;4.60;87.30;;;;;;5079460;28;20042;-70
2023/11/25 10:35:56;;;;;;;1.20;0.77;;;4.40;96.60;;;;;;5069896;28;20063;-73
2023/11/25 10:38:26;;;;;;;1.77;0.88;;;4.30;87.20;;;;;;5077233;28;20070;-73
2023/11/25 10:40:59;;;;;;;1.23;0.90;;;4.70;96.60;;;;;;5075662;28;20101;-70
2023/11/25 10:43:26;;;;;;;1.92;1.10;;;1.90;85.00;;;;;;5080638;28;20029;-73
2023/11/25 10:46:12;;;;;;;3.65;1.00;;;4.70;86.00;;;;;;5080734;28;20075;-71
2023/11/25 10:48:38;;;;;;;0.35;0.32;;;4.30;83.40;;;;;;5080255;28;20186;-71
2023/11/25 10:51:08;;;;;;;0.50;0.43;;;4.90;80.70;;;;;;5080383;28;20035;-72
2023/11/25 10:53:36;;;;;;;;;;;5.00;79.00;;;;;;5072967;28;20374;-72
2023/11/25 10:56:03;;;;;;;2.65;0.80;;;5.20;92.50;;;;;;5080779;28;19909;-72
2023/11/25 10:58:30;;;;;;;0.50;0.50;;;5.30;86.80;;;;;;5078717;28;20024;-73
2023/11/25 11:01:00;;;;;;;0.70;0.70;;;5.40;75.90;;;;;;5080918;28;20323;-73
2023/11/25 11:03:55;;;;;;;0.50;0.50;;;5.70;74.60;;;;;;5080841;28;20035;-73
2023/11/25 11:06:27;;;;;;;2.22;0.70;;;5.90;76.40;;;;;;5081493;28;20036;-73
2023/11/25 11:08:53;;;;;;;0.88;0.73;;;6.10;90.20;;;;;;5082445;28;20024;-71
2023/11/25 11:11:45;;;;;;;2.40;0.93;;;6.40;78.60;;;;;;5080515;28;20198;-72
2023/11/25 11:14:12;;;;;;;1.02;0.70;;;6.40;70.40;;;;;;5080386;28;20031;-71
2023/11/25 11:16:40;;;;;;;1.02;0.57;;;6.30;83.50;;;;;;5080500;28;20020;-72
2023/11/25 11:19:07;;;;;;;1.53;0.70;;;6.50;80.30;;;;;;5080371;28;20062;-72
2023/11/25 11:21:43;;;;;;;1.75;0.65;;;6.30;82.80;;;;;;5082356;28;20253;-72
2023/11/25 11:24:12;;;;;;;0.43;0.38;;;6.60;77.90;;;;;;5083904;28;20099;-72
2023/11/25 11:26:38;;;;;;;;;;;6.40;68.50;;;;;;5078182;28;20052;-71
2023/11/25 11:29:18;;;;;;;0.65;0.65;;;6.70;67.30;;;;;;5063893;28;19909;-72
2023/11/25 11:32:05;;;;;;;2.35;0.98;;;6.90;67.80;;;;;;5065820;28;20088;-71
2023/11/25 11:34:35;;;;;;;1.85;0.80;;;6.80;65.30;;;;;;5066883;28;20167;-71
2023/11/25 11:37:03;;;;;;;1.13;0.60;;;7.40;65.10;;;;;;5066712;28;20097;-71
2023/11/25 11:39:58;;;;;;;4.82;1.13;;;7.90;68.80;;;;;;5063735;28;20032;-71
2023/11/25 11:42:25;;;;;;;1.60;0.70;;;7.40;63.20;;;;;;5080512;28;20104;-71
2023/11/25 11:44:59;;;;;;;2.00;0.70;;;7.00;64.10;;;;;;5079014;28;20032;-71
2023/11/25 11:47:25;;;;;;;2.63;0.80;;;;;;;;;;5065660;28;20029;-71
2023/11/25 11:49:52;;;;;;;1.27;0.60;;;6.20;65.20;;;;;;5060097;28;20367;-71
2023/11/25 11:52:18;;;;;;;3.30;1.00;;;5.60;83.00;;;;;;5067540;28;20332;-70
2023/11/25 11:54:44;;;;;;;1.35;1.10;;;;;;;;;;5070934;28;20036;-71
2023/11/25 11:57:13;;;;;;;1.00;0.90;;;5.30;78.90;;;;;;5080090;28;20114;-71
2023/11/25 12:00:01;;;;;;;;;;;5.20;67.40;;;;;;5080464;28;20059;-71
2023/11/25 12:02:34;;;;;;;1.08;0.52;;;4.40;67.60;;;;;;5079023;28;19908;-72
2023/11/25 12:05:00;;;;;;;1.42;1.10;;;4.60;86.10;;;;;;5079981;28;20051;-71
2023/11/25 12:07:27;;;;;;;1.23;0.95;;;4.70;85.90;;;;;;5079929;28;20047;-70
2023/11/25 12:09:54;;;;;;;1.90;1.10;;;4.40;81.20;;;;;;5079723;28;20043;-71
2023/11/25 12:12:21;;;;;;;3.17;0.80;;;4.40;85.90;;;;;;5076876;28;20023;-71
2023/11/25 12:14:47;;;;;;;1.00;0.80;;;4.50;85.10;;;;;;5079374;28;20032;-71
2023/11/25 12:17:13;;;;;;;1.67;1.02;;;;;;;;;;5075670;28;20020;-71
2023/11/25 12:19:41;;;;;;;3.08;1.27;;;4.60;84.90;;;;;;5081639;28;20024;-71
2023/11/25 12:22:09;;;;;;;1.80;1.30;;;5.90;83.80;;;;;;5083774;28;20053;-73
2023/11/25 12:24:35;;;;;;;1.40;0.90;;;;;;;;;;5082987;28;20020;-74
2023/11/25 12:27:03;;;;;;;1.83;1.20;;;7.80;75.70;;;;;;5082985;28;20329;-73
2023/11/25 12:29:33;;;;;;;1.92;1.17;;;7.50;65.40;;;;;;5083281;28;20032;-73
2023/11/25 12:31:59;;;;;;;2.72;1.08;;;8.90;61.90;;;;;;5083400;28;20024;-73
2023/11/25 12:34:25;;;;;;;2.00;1.00;;;10.20;59.10;;;;;;5082798;28;20025;-73
2023/11/25 12:36:51;;;;;;;0.75;0.60;;;10.50;59.80;;;;;;5080651;28;20032;-74
2023/11/25 12:39:17;;;;;;;0.60;0.60;;;;;;;;;;5081310;28;20153;-71
2023/11/25 12:41:49;;;;;;;1.95;1.05;;;8.50;52.10;;;;;;5081556;28;20371;-71
2023/11/25 12:44:16;;;;;;;2.70;1.25;;;8.00;53.30;;;;;;5082336;28;20063;-72
2023/11/25 12:46:58;;;;;;;1.95;1.20;;;9.70;63.10;;;;;;5082661;28;20016;-72
2023/11/25 12:49:25;;;;;;;2.70;1.00;;;9.40;52.90;;;;;;5081799;28;20036;-71
2023/11/25 12:51:52;;;;;;;1.20;1.00;;;13.50;50.40;;;;;;5083125;28;20070;-71
2023/11/25 12:54:21;;;;;;;1.77;0.85;;;14.10;44.40;;;;;;5082382;28;20024;-73
2023/11/25 12:56:56;;;;;;;2.05;0.80;;;18.00;36.20;;;;;;5082406;28;20318;-72
2023/11/25 12:59:29;;;;;;;1.67;1.00;;;19.20;36.30;;;;;;5080272;28;20354;-73
2023/11/25 13:02:09;;;;;;;2.00;1.10;;;21.30;33.80;;;;;;5082473;28;20036;-72
2023/11/25 13:04:41;;;;;;;1.48;1.30;;;23.50;29.60;;;;;;5080905;28;20194;-74
2023/11/25 13:07:07;;;;;;;1.95;1.17;;;23.90;30.00;;;;;;5082221;28;20024;-72
2023/11/25 13:09:37;;;;;;;3.53;2.22;;;25.70;30.00;;;;;;5082273;28;20028;-73
2023/11/25 13:12:04;;;;;;;1.25;1.10;;;25.60;28.50;;;;;;5081237;28;20043;-74
2023/11/25 13:14:30;;;;;;;1.50;1.30;;;25.90;27.50;;;;;;5081021;28;20048;-73
2023/11/25 13:16:56;;;;;;;2.60;1.40;;;25.60;28.90;;;;;;5082750;28;20305;-72
2023/11/25 13:19:22;;;;;;;1.05;0.93;;;23.70;29.50;;;;;;5082325;28;20016;-72
2023/11/25 13:21:48;;;;;;;0.73;0.70;;;23.10;31.30;;;;;;5082742;28;20055;-72
2023/11/25 13:24:14;;;;;;;1.40;0.98;;;;;;;;;;5082485;28;20028;-73
2023/11/25 13:26:40;;;;;;;1.80;1.00;;;17.10;37.50;;;;;;5082152;28;20047;-72